createdAt,value
2022-11-16T00:00:27.919Z,74.95
2022-11-16T00:02:37.263Z,74.23
2022-11-16T00:04:39.407Z,73.55
2022-11-16T00:06:41.711Z,73.08
2022-11-16T00:09:08.276Z,73.65
2022-11-16T00:11:13.374Z,72.60
2022-11-16T00:13:15.795Z,74.61
2022-11-16T00:15:17.694Z,73.57
2022-11-16T00:17:19.655Z,73.08
2022-11-16T00:19:22.118Z,73.99
2022-11-16T00:21:25.041Z,73.64
2022-11-16T00:23:26.947Z,73.58
2022-11-16T00:25:29.249Z,73.12
2022-11-16T00:27:31.182Z,72.93
2022-11-16T00:29:33.186Z,71.88
2022-11-16T00:31:35.458Z,71.99
2022-11-16T00:33:37.626Z,72.31
2022-11-16T00:35:41.066Z,72.97
2022-11-16T00:37:43.312Z,72.00
2022-11-16T00:39:45.186Z,71.99
2022-11-16T00:41:47.924Z,72.21
2022-11-16T00:43:50.187Z,71.97
2022-11-16T00:45:52.350Z,71.56
2022-11-16T00:47:59.179Z,70.83
2022-11-16T00:50:02.722Z,71.34
2022-11-16T00:52:04.656Z,71.60
2022-11-16T00:54:08.158Z,71.63
2022-11-16T00:56:10.405Z,72.04
2022-11-16T00:58:12.876Z,71.16
2022-11-16T01:00:15.589Z,70.69
2022-11-16T01:02:18.315Z,70.27
2022-11-16T01:04:20.277Z,70.43
2022-11-16T01:06:23.525Z,69.63
2022-11-16T01:08:25.772Z,70.94
2022-11-16T01:10:28.671Z,70.72
2022-11-16T01:12:30.600Z,70.17
2022-11-16T01:14:32.915Z,70.71
2022-11-16T01:16:35.128Z,70.23
2022-11-16T01:18:37.873Z,70.61
2022-11-16T01:20:41.155Z,70.08
2022-11-16T01:22:43.760Z,69.39
2022-11-16T01:24:47.220Z,70.88
2022-11-16T01:26:49.587Z,70.41
2022-11-16T01:28:51.817Z,70.31
2022-11-16T01:30:53.956Z,70.20
2022-11-16T01:32:56.200Z,70.29
2022-11-16T01:34:58.209Z,70.33
2022-11-16T01:37:00.117Z,71.26
2022-11-16T01:39:05.218Z,71.76
2022-11-16T01:41:07.202Z,71.48
2022-11-16T01:43:22.095Z,71.81
2022-11-16T01:45:38.877Z,71.28
2022-11-16T01:47:40.867Z,71.07
2022-11-16T01:49:46.575Z,72.22
2022-11-16T01:51:53.658Z,71.86
2022-11-16T01:53:56.827Z,71.63
2022-11-16T01:55:59.298Z,71.57
2022-11-16T01:58:02.546Z,71.62
2022-11-16T02:00:07.915Z,70.56
2022-11-16T02:02:10.219Z,71.58
2022-11-16T02:04:13.288Z,71.13
2022-11-16T02:06:27.340Z,71.65
2022-11-16T02:09:03.940Z,70.57
2022-11-16T02:11:27.318Z,70.55
2022-11-16T02:13:42.516Z,70.04
2022-11-16T02:15:54.032Z,69.97
2022-11-16T02:18:20.608Z,69.83
2022-11-16T02:20:31.426Z,69.52
2022-11-16T02:22:54.900Z,69.42
2022-11-16T02:25:35.979Z,68.79
2022-11-16T02:27:54.002Z,70.48
2022-11-16T02:29:57.318Z,69.35
2022-11-16T02:32:17.274Z,68.43
2022-11-16T02:34:22.913Z,69.69
2022-11-16T02:36:25.752Z,69.79
2022-11-16T02:38:32.077Z,69.74
2022-11-16T02:40:36.161Z,69.71
2022-11-16T02:43:01.067Z,69.60
2022-11-16T02:45:06.456Z,69.67
2022-11-16T02:47:14.850Z,69.02
2022-11-16T02:49:20.147Z,69.49
2022-11-16T02:51:24.566Z,70.14
2022-11-16T02:53:28.072Z,68.73
2022-11-16T02:55:34.459Z,69.58
2022-11-16T02:57:51.590Z,69.62
2022-11-16T02:59:56.613Z,68.83
2022-11-16T03:02:14.750Z,68.77
2022-11-16T03:04:41.443Z,67.56
2022-11-16T03:06:46.902Z,68.22
2022-11-16T03:08:56.864Z,67.89
2022-11-16T03:11:21.935Z,68.79
2022-11-16T03:13:28.366Z,68.36
2022-11-16T03:15:30.368Z,68.25
2022-11-16T03:17:39.362Z,69.00
2022-11-16T03:20:07.453Z,69.01
2022-11-16T03:22:18.396Z,69.47
2022-11-16T03:24:20.759Z,69.50
2022-11-16T03:26:26.800Z,69.33
2022-11-16T03:28:42.059Z,68.83
2022-11-16T03:30:52.104Z,68.38
2022-11-16T03:33:03.283Z,67.50
2022-11-16T03:35:26.337Z,69.38
2022-11-16T03:37:30.244Z,69.03
2022-11-16T03:39:37.363Z,68.64
2022-11-16T03:41:44.306Z,69.43
2022-11-16T03:43:48.718Z,69.90
2022-11-16T03:45:50.948Z,69.64
2022-11-16T03:47:52.763Z,69.75
2022-11-16T03:49:54.643Z,70.46
2022-11-16T03:51:58.239Z,69.69
2022-11-16T03:54:00.191Z,69.22
2022-11-16T03:56:02.434Z,69.27
2022-11-16T03:58:05.362Z,68.94
2022-11-16T04:00:08.291Z,69.69
2022-11-16T04:02:10.976Z,70.04
2022-11-16T04:04:33.903Z,68.74
2022-11-16T04:06:54.085Z,68.68
2022-11-16T04:09:28.364Z,67.64
2022-11-16T04:11:48.889Z,68.80
2022-11-16T04:14:10.102Z,68.64
2022-11-16T04:16:30.308Z,68.43
2022-11-16T04:18:50.944Z,68.40
2022-11-16T04:21:11.498Z,68.01
2022-11-16T04:23:34.868Z,69.53
2022-11-16T04:25:39.930Z,69.96
2022-11-16T04:28:00.838Z,69.85
2022-11-16T04:30:04.133Z,69.16
2022-11-16T04:32:25.424Z,69.98
2022-11-16T04:34:46.346Z,69.77
2022-11-16T04:37:06.836Z,69.13
2022-11-16T04:39:09.019Z,68.50
2022-11-16T04:41:31.224Z,68.69
2022-11-16T04:43:33.039Z,68.59
2022-11-16T04:45:53.470Z,68.98
2022-11-16T04:47:55.737Z,68.59
2022-11-16T04:49:57.629Z,69.21
2022-11-16T04:51:59.938Z,69.12
2022-11-16T04:54:02.132Z,68.88
2022-11-16T04:56:04.244Z,69.89
2022-11-16T04:58:06.395Z,69.95
2022-11-16T05:00:09.389Z,70.36
2022-11-16T05:02:11.289Z,70.39
2022-11-16T05:04:13.228Z,70.13
2022-11-16T05:06:15.420Z,70.20
2022-11-16T05:08:17.254Z,70.42
2022-11-16T05:10:19.297Z,70.44
2022-11-16T05:12:27.010Z,70.32
2022-11-16T05:14:28.890Z,69.42
2022-11-16T05:16:30.859Z,69.14
2022-11-16T05:18:33.375Z,68.65
2022-11-16T05:20:54.114Z,69.45
2022-11-16T05:22:58.066Z,70.08
2022-11-16T05:25:00.468Z,71.47
2022-11-16T05:27:10.782Z,71.43
2022-11-16T05:29:12.695Z,71.23
2022-11-16T05:31:15.184Z,70.81
2022-11-16T05:33:18.661Z,70.84
2022-11-16T05:35:20.567Z,71.79
2022-11-16T05:37:26.339Z,71.15
2022-11-16T05:39:28.199Z,70.94
2022-11-16T05:41:30.644Z,72.31
2022-11-16T05:43:32.855Z,70.56
2022-11-16T05:45:34.751Z,71.44
2022-11-16T05:47:36.630Z,71.90
2022-11-16T05:49:38.824Z,71.42
2022-11-16T05:51:42.314Z,71.88
2022-11-16T05:53:44.558Z,72.87
2022-11-16T05:55:46.888Z,71.88
2022-11-16T05:57:48.806Z,72.27
2022-11-16T05:59:50.672Z,71.24
2022-11-16T06:01:53.403Z,71.26
2022-11-16T06:03:55.408Z,71.66
2022-11-16T06:05:58.279Z,71.43
2022-11-16T06:08:00.632Z,71.95
2022-11-16T06:10:02.577Z,70.53
2022-11-16T06:12:05.158Z,71.52
2022-11-16T06:14:08.117Z,71.63
2022-11-16T06:16:10.364Z,71.58
2022-11-16T06:18:12.331Z,70.51
2022-11-16T06:20:14.710Z,71.16
2022-11-16T06:22:16.706Z,71.91
2022-11-16T06:24:18.652Z,71.05
2022-11-16T06:26:20.983Z,70.93
2022-11-16T06:28:23.336Z,71.34
2022-11-16T06:30:25.821Z,70.86
2022-11-16T06:32:28.139Z,71.30
2022-11-16T06:34:30.246Z,69.77
2022-11-16T06:36:32.129Z,69.90
2022-11-16T06:38:34.644Z,70.91
2022-11-16T06:40:38.392Z,71.20
2022-11-16T06:42:40.350Z,71.59
2022-11-16T06:44:42.549Z,72.13
2022-11-16T06:46:44.513Z,71.83
2022-11-16T06:48:46.350Z,72.11
2022-11-16T06:50:49.929Z,72.32
2022-11-16T06:52:51.758Z,71.45
2022-11-16T06:54:53.723Z,72.07
2022-11-16T06:56:55.896Z,71.54
2022-11-16T06:59:00.412Z,70.74
2022-11-16T07:01:07.081Z,71.26
2022-11-16T07:03:09.684Z,72.40
2022-11-16T07:05:11.644Z,70.84
2022-11-16T07:07:15.177Z,70.75
2022-11-16T07:09:17.409Z,71.08
2022-11-16T07:11:20.415Z,71.69
2022-11-16T07:13:22.149Z,71.43
2022-11-16T07:15:24.509Z,71.88
2022-11-16T07:17:26.492Z,71.40
2022-11-16T07:19:28.375Z,71.23
2022-11-16T07:21:31.410Z,69.82
2022-11-16T07:23:33.572Z,71.89
2022-11-16T07:25:35.551Z,72.31
2022-11-16T07:27:37.926Z,73.29
2022-11-16T07:29:39.822Z,73.99
2022-11-16T07:31:41.675Z,74.33
2022-11-16T07:33:44.108Z,74.39
2022-11-16T07:35:45.905Z,73.33
2022-11-16T07:37:48.002Z,73.92
2022-11-16T07:39:50.170Z,73.88
2022-11-16T07:41:53.710Z,72.31
2022-11-16T07:43:56.952Z,71.29
2022-11-16T07:46:45.159Z,72.17
2022-11-16T07:48:42.736Z,71.39
2022-11-16T07:50:45.358Z,72.28
2022-11-16T07:52:47.354Z,71.69
2022-11-16T07:54:49.236Z,71.30
2022-11-16T07:56:51.427Z,71.30
2022-11-16T07:58:53.210Z,71.14
2022-11-16T08:00:55.463Z,70.73
2022-11-16T08:02:57.651Z,69.10
2022-11-16T08:04:59.512Z,69.12
2022-11-16T08:07:01.354Z,70.14
2022-11-16T08:09:04.100Z,71.98
2022-11-16T08:11:08.577Z,72.00
2022-11-16T08:13:10.537Z,71.54
2022-11-16T08:15:14.466Z,70.86
2022-11-16T08:17:16.250Z,71.54
2022-11-16T08:19:18.064Z,71.19
2022-11-16T08:21:20.236Z,71.60
2022-11-16T08:23:22.063Z,71.26
2022-11-16T08:25:23.922Z,70.34
2022-11-16T08:27:26.900Z,69.71
2022-11-16T08:29:29.495Z,69.73
2022-11-16T08:31:31.446Z,71.10
2022-11-16T08:33:33.664Z,71.37
2022-11-16T08:35:36.392Z,70.71
2022-11-16T08:37:38.198Z,69.97
2022-11-16T08:39:40.564Z,70.20
2022-11-16T08:41:44.304Z,70.19
2022-11-16T08:43:50.826Z,69.86
2022-11-16T08:45:57.459Z,69.43
2022-11-16T08:48:04.017Z,69.92
2022-11-16T08:50:06.308Z,69.15
2022-11-16T08:52:08.478Z,70.23
2022-11-16T08:54:10.723Z,69.70
2022-11-16T08:56:13.759Z,70.43
2022-11-16T08:58:16.130Z,70.08
2022-11-16T09:00:18.899Z,70.59
2022-11-16T09:02:25.627Z,70.38
2022-11-16T09:04:32.769Z,70.09
2022-11-16T09:06:37.687Z,69.82
2022-11-16T09:08:41.949Z,69.80
2022-11-16T09:10:44.185Z,69.20
2022-11-16T09:12:46.204Z,69.27
2022-11-16T09:14:48.043Z,68.66
2022-11-16T09:16:50.394Z,69.07
2022-11-16T09:18:52.494Z,69.46
2022-11-16T09:20:55.155Z,70.89
2022-11-16T09:22:57.367Z,70.64
2022-11-16T09:24:59.495Z,71.00
2022-11-16T09:27:04.364Z,70.86
2022-11-16T09:29:06.986Z,70.19
2022-11-16T09:31:10.308Z,70.30
2022-11-16T09:33:12.588Z,69.48
2022-11-16T09:35:14.812Z,68.91
2022-11-16T09:37:16.708Z,69.27
2022-11-16T09:39:30.639Z,68.72
2022-11-16T09:41:45.890Z,68.53
2022-11-16T09:44:08.883Z,68.44
2022-11-16T09:46:25.775Z,67.83
2022-11-16T09:48:28.681Z,66.93
2022-11-16T09:50:53.225Z,66.34
2022-11-16T09:53:01.534Z,66.97
2022-11-16T09:55:25.709Z,67.07
2022-11-16T09:57:35.542Z,66.25
2022-11-16T09:59:43.683Z,65.92
2022-11-16T10:01:57.435Z,67.36
2022-11-16T10:04:07.616Z,66.70
2022-11-16T10:06:51.533Z,66.56
2022-11-16T10:08:56.786Z,65.53
2022-11-16T10:11:19.256Z,64.99
2022-11-16T10:13:35.464Z,66.06
2022-11-16T10:15:50.908Z,65.99
2022-11-16T10:18:20.262Z,65.16
2022-11-16T10:20:44.431Z,64.95
2022-11-16T10:22:58.782Z,64.51
2022-11-16T10:25:15.286Z,64.15
2022-11-16T10:27:26.164Z,63.89
2022-11-16T10:29:57.286Z,63.62
2022-11-16T10:32:16.282Z,64.08
2022-11-16T10:34:37.406Z,61.86
2022-11-16T10:36:39.439Z,62.09
2022-11-16T10:38:43.397Z,64.77
2022-11-16T10:40:51.324Z,63.57
2022-11-16T10:43:05.433Z,63.79
2022-11-16T10:45:11.124Z,63.08
2022-11-16T10:47:42.026Z,63.48
2022-11-16T10:49:52.282Z,63.36
2022-11-16T10:51:54.488Z,64.06
2022-11-16T10:53:57.193Z,64.08
2022-11-16T10:56:15.028Z,63.25
2022-11-16T10:58:17.223Z,62.62
2022-11-16T11:00:46.488Z,62.76
2022-11-16T11:02:49.033Z,63.12
2022-11-16T11:05:17.230Z,61.93
2022-11-16T11:07:30.053Z,62.98
2022-11-16T11:09:36.948Z,62.87
2022-11-16T11:11:57.614Z,63.92
2022-11-16T11:14:18.127Z,64.87
2022-11-16T11:16:20.223Z,64.42
2022-11-16T11:18:29.158Z,63.92
2022-11-16T11:20:31.557Z,64.93
2022-11-16T11:22:41.845Z,65.65
2022-11-16T11:24:48.662Z,63.46
2022-11-16T11:26:58.027Z,63.77
2022-11-16T11:29:01.312Z,64.36
2022-11-16T11:31:06.188Z,63.77
2022-11-16T11:33:15.653Z,64.39
2022-11-16T11:35:27.337Z,63.16
2022-11-16T11:37:33.184Z,63.32
2022-11-16T11:39:37.109Z,64.16
2022-11-16T11:41:44.594Z,62.96
2022-11-16T11:44:02.755Z,62.88
2022-11-16T11:46:16.549Z,62.06
2022-11-16T11:48:30.058Z,63.12
2022-11-16T11:50:53.955Z,62.09
2022-11-16T11:53:38.659Z,61.57
2022-11-16T11:55:40.491Z,61.33
2022-11-16T11:57:45.111Z,60.99
2022-11-16T11:59:48.583Z,61.63
2022-11-16T12:02:16.468Z,63.09
2022-11-16T12:04:43.496Z,62.98
2022-11-16T12:07:12.662Z,63.08
2022-11-16T12:09:45.782Z,63.50
2022-11-16T12:12:15.090Z,62.86
2022-11-16T12:14:23.133Z,64.09
2022-11-16T12:16:45.542Z,64.25
2022-11-16T12:19:04.967Z,65.30
2022-11-16T12:21:12.388Z,66.80
2022-11-16T12:23:35.887Z,66.27
2022-11-16T12:26:07.816Z,69.95
2022-11-16T12:28:39.579Z,70.99
2022-11-16T12:31:13.819Z,71.35
2022-11-16T12:33:34.806Z,70.59
2022-11-16T12:35:42.297Z,72.12
2022-11-16T12:38:00.025Z,72.80
2022-11-16T12:40:20.543Z,71.86
2022-11-16T12:42:29.919Z,71.22
2022-11-16T12:44:54.120Z,72.24
2022-11-16T12:47:05.098Z,70.70
2022-11-16T12:49:27.410Z,71.15
2022-11-16T12:51:56.857Z,72.40
2022-11-16T12:54:11.858Z,72.95
2022-11-16T12:56:23.021Z,72.84
2022-11-16T12:58:39.454Z,72.78
2022-11-16T13:00:53.326Z,72.93
2022-11-16T13:03:22.045Z,73.32
2022-11-16T13:05:33.636Z,73.43
2022-11-16T13:07:44.166Z,72.44
2022-11-16T13:09:51.356Z,72.83
2022-11-16T13:11:58.426Z,72.17
2022-11-16T13:14:05.350Z,71.69
2022-11-16T13:16:08.431Z,74.80
2022-11-16T13:18:16.879Z,73.09
2022-11-16T13:20:31.221Z,73.61
2022-11-16T13:22:36.682Z,73.83
2022-11-16T13:24:53.504Z,73.52
2022-11-16T13:27:23.213Z,73.07
2022-11-16T13:29:52.077Z,74.72
2022-11-16T13:32:13.770Z,72.67
2022-11-16T13:34:23.634Z,71.71
2022-11-16T13:36:39.303Z,73.03
2022-11-16T13:38:54.287Z,73.41
2022-11-16T13:41:29.236Z,75.52
2022-11-16T13:43:31.090Z,73.02
2022-11-16T13:45:44.507Z,71.70
2022-11-16T13:47:54.857Z,72.06
2022-11-16T13:50:00.194Z,72.53
2022-11-16T13:52:26.584Z,73.69
2022-11-16T13:54:49.061Z,72.40
2022-11-16T13:56:51.839Z,72.03
2022-11-16T13:58:57.380Z,72.03
2022-11-16T14:01:04.367Z,72.00
2022-11-16T14:03:15.571Z,72.67
2022-11-16T14:05:29.491Z,72.92
2022-11-16T14:07:35.497Z,73.49
2022-11-16T14:09:49.274Z,71.81
2022-11-16T14:11:51.088Z,71.87
2022-11-16T14:13:52.883Z,72.46
2022-11-16T14:16:17.216Z,71.01
2022-11-16T14:18:22.019Z,70.34
2022-11-16T14:20:38.509Z,70.23
2022-11-16T14:23:11.518Z,70.25
2022-11-16T14:25:38.989Z,70.13
2022-11-16T14:27:54.368Z,69.72
2022-11-16T14:30:03.225Z,69.79
2022-11-16T14:32:22.585Z,69.84
2022-11-16T14:34:39.902Z,69.27
2022-11-16T14:36:44.395Z,68.65
2022-11-16T14:38:46.316Z,68.73
2022-11-16T14:40:56.193Z,68.07
2022-11-16T14:43:21.570Z,67.97
2022-11-16T14:45:26.499Z,68.49
2022-11-16T14:47:32.289Z,68.71
2022-11-16T14:49:37.063Z,67.77
2022-11-16T14:51:44.911Z,67.58
2022-11-16T14:53:57.743Z,67.28
2022-11-16T14:56:11.588Z,68.20
2022-11-16T14:58:21.923Z,67.92
2022-11-16T15:00:30.277Z,68.09
2022-11-16T15:02:33.199Z,67.48
2022-11-16T15:04:35.075Z,67.53
2022-11-16T15:06:46.125Z,67.85
2022-11-16T15:08:51.931Z,68.23
2022-11-16T15:10:53.775Z,67.92
2022-11-16T15:12:57.651Z,69.54
2022-11-16T15:15:06.128Z,68.72
2022-11-16T15:17:09.831Z,68.58
2022-11-16T15:19:12.422Z,68.44
2022-11-16T15:21:24.076Z,68.43
2022-11-16T15:23:31.092Z,69.11
2022-11-16T15:25:43.405Z,70.25
2022-11-16T15:27:45.222Z,69.14
2022-11-16T15:29:48.098Z,69.55
2022-11-16T15:31:51.106Z,69.11
2022-11-16T15:33:52.954Z,69.23
2022-11-16T15:35:55.779Z,69.02
2022-11-16T15:38:05.195Z,68.81
2022-11-16T15:40:09.970Z,68.94
2022-11-16T15:42:15.139Z,69.87
2022-11-16T15:44:20.409Z,69.32
2022-11-16T15:46:24.300Z,69.15
2022-11-16T15:48:27.896Z,67.88
2022-11-16T15:50:30.262Z,66.80
2022-11-16T15:52:44.773Z,68.49
2022-11-16T15:55:03.966Z,68.07
2022-11-16T15:57:09.155Z,68.12
2022-11-16T15:59:13.909Z,68.73
2022-11-16T16:01:16.975Z,67.16
2022-11-16T16:03:21.830Z,67.47
2022-11-16T16:05:34.734Z,68.64
2022-11-16T16:07:44.051Z,68.04
2022-11-16T16:09:46.240Z,67.02
2022-11-16T16:11:48.183Z,67.00
2022-11-16T16:13:58.821Z,67.99
2022-11-16T16:16:36.442Z,68.06
2022-11-16T16:18:43.480Z,67.88
2022-11-16T16:20:48.856Z,68.71
2022-11-16T16:22:51.819Z,68.95
2022-11-16T16:24:54.128Z,68.63
2022-11-16T16:26:56.292Z,70.05
2022-11-16T16:28:58.126Z,70.11
2022-11-16T16:30:59.931Z,68.76
2022-11-16T16:33:02.358Z,68.57
2022-11-16T16:35:07.389Z,69.44
2022-11-16T16:37:11.295Z,69.14
2022-11-16T16:39:13.443Z,69.43
2022-11-16T16:41:24.318Z,69.03
2022-11-16T16:43:27.334Z,67.96
2022-11-16T16:45:37.170Z,67.59
2022-11-16T16:47:39.050Z,69.29
2022-11-16T16:49:41.140Z,69.48
2022-11-16T16:51:43.275Z,69.04
2022-11-16T16:53:45.054Z,68.44
2022-11-16T16:55:49.968Z,68.97
2022-11-16T16:57:54.066Z,68.65
2022-11-16T16:59:55.945Z,67.61
2022-11-16T17:01:58.957Z,67.74
2022-11-16T17:04:01.177Z,67.17
2022-11-16T17:06:03.156Z,67.31
2022-11-16T17:08:05.324Z,66.35
2022-11-16T17:10:07.896Z,66.65
2022-11-16T17:12:11.087Z,67.44
2022-11-16T17:14:12.883Z,66.49
2022-11-16T17:16:15.174Z,67.20
2022-11-16T17:18:17.040Z,65.47
2022-11-16T17:20:18.916Z,65.35
2022-11-16T17:22:21.567Z,66.19
2022-11-16T17:24:23.371Z,64.72
2022-11-16T17:26:29.380Z,65.02
2022-11-16T17:28:31.844Z,65.19
2022-11-16T17:30:33.669Z,64.54
2022-11-16T17:32:35.498Z,63.10
2022-11-16T17:34:40.004Z,63.07
2022-11-16T17:36:42.809Z,63.11
2022-11-16T17:38:45.228Z,64.55
2022-11-16T17:40:47.462Z,64.16
2022-11-16T17:42:49.211Z,64.21
2022-11-16T17:44:51.249Z,63.03
2022-11-16T17:46:53.386Z,63.36
2022-11-16T17:48:55.293Z,64.72
2022-11-16T17:50:57.208Z,66.02
2022-11-16T17:52:59.369Z,66.22
2022-11-16T17:55:01.126Z,65.52
2022-11-16T17:57:02.991Z,65.44
2022-11-16T17:59:05.523Z,65.15
2022-11-16T18:01:07.745Z,65.56
2022-11-16T18:03:09.676Z,66.46
2022-11-16T18:05:11.815Z,66.16
2022-11-16T18:07:13.639Z,66.41
2022-11-16T18:09:15.594Z,66.87
2022-11-16T18:11:19.954Z,65.46
2022-11-16T18:13:21.731Z,67.59
2022-11-16T18:15:30.552Z,66.54
2022-11-16T18:17:34.802Z,67.14
2022-11-16T18:19:36.570Z,66.46
2022-11-16T18:21:40.601Z,66.10
2022-11-16T18:23:43.113Z,66.64
2022-11-16T18:25:44.910Z,67.42
2022-11-16T18:27:53.818Z,66.42
2022-11-16T18:29:56.088Z,66.49
2022-11-16T18:31:58.012Z,66.47
2022-11-16T18:34:01.523Z,66.10
2022-11-16T18:36:05.128Z,66.18
2022-11-16T18:38:08.203Z,67.13
2022-11-16T18:40:12.105Z,66.26
2022-11-16T18:42:14.409Z,65.34
2022-11-16T18:44:16.235Z,65.55
2022-11-16T18:46:23.955Z,64.73
2022-11-16T18:48:26.456Z,65.10
2022-11-16T18:50:28.314Z,65.26
2022-11-16T18:52:30.120Z,65.52
2022-11-16T18:54:32.263Z,66.71
2022-11-16T18:56:35.148Z,66.09
2022-11-16T18:58:50.313Z,66.80
2022-11-16T19:00:53.717Z,67.23
2022-11-16T19:02:55.530Z,64.97
2022-11-16T19:04:57.314Z,64.50
2022-11-16T19:06:59.586Z,64.23
2022-11-16T19:09:03.978Z,65.21
2022-11-16T19:11:11.687Z,66.16
2022-11-16T19:13:13.829Z,65.25
2022-11-16T19:15:15.794Z,64.79
2022-11-16T19:17:19.042Z,64.37
2022-11-16T19:19:22.092Z,64.46
2022-11-16T19:21:24.348Z,64.85
2022-11-16T19:23:26.140Z,65.58
2022-11-16T19:25:28.376Z,65.05
2022-11-16T19:27:32.248Z,65.93
2022-11-16T19:29:34.430Z,65.65
2022-11-16T19:31:36.662Z,65.66
2022-11-16T19:33:39.012Z,65.12
2022-11-16T19:35:40.948Z,65.27
2022-11-16T19:37:43.374Z,65.22
2022-11-16T19:39:45.156Z,64.51
2022-11-16T19:41:47.004Z,65.54
2022-11-16T19:43:52.669Z,64.77
2022-11-16T19:45:54.735Z,65.28
2022-11-16T19:47:57.311Z,64.47
2022-11-16T19:49:59.509Z,65.63
2022-11-16T19:52:01.396Z,64.67
2022-11-16T19:54:03.594Z,65.21
2022-11-16T19:56:07.507Z,65.00
2022-11-16T19:58:09.267Z,65.86
2022-11-16T20:00:11.685Z,65.01
2022-11-16T20:02:13.931Z,65.00
2022-11-16T20:04:15.995Z,66.38
2022-11-16T20:06:23.654Z,65.77
2022-11-16T20:08:25.816Z,65.01
2022-11-16T20:10:29.616Z,65.04
2022-11-16T20:12:31.455Z,63.99
2022-11-16T20:14:33.687Z,64.20
2022-11-16T20:16:39.527Z,64.20
2022-11-16T20:18:42.494Z,63.54
2022-11-16T20:20:44.652Z,64.70
2022-11-16T20:22:50.828Z,65.40
2022-11-16T20:24:54.706Z,65.56
2022-11-16T20:26:57.101Z,64.94
2022-11-16T20:28:59.235Z,65.21
2022-11-16T20:31:05.101Z,65.92
2022-11-16T20:33:07.281Z,65.60
2022-11-16T20:35:09.321Z,65.32
2022-11-16T20:37:11.127Z,64.34
2022-11-16T20:39:15.523Z,64.89
2022-11-16T20:41:19.880Z,64.32
2022-11-16T20:43:21.936Z,64.90
2022-11-16T20:45:24.080Z,64.54
2022-11-16T20:47:25.960Z,63.15
2022-11-16T20:49:27.840Z,63.84
2022-11-16T20:51:30.226Z,63.40
2022-11-16T20:53:32.536Z,63.84
2022-11-16T20:55:34.830Z,62.65
2022-11-16T20:57:37.416Z,63.62
2022-11-16T20:59:39.271Z,64.37
2022-11-16T21:01:44.780Z,64.29
2022-11-16T21:03:47.159Z,63.12
2022-11-16T21:05:51.811Z,62.63
2022-11-16T21:07:53.655Z,62.09
2022-11-16T21:10:14.295Z,62.46
2022-11-16T21:12:38.775Z,62.91
2022-11-16T21:14:43.731Z,63.52
2022-11-16T21:16:45.695Z,65.11
2022-11-16T21:18:47.504Z,65.30
2022-11-16T21:20:57.906Z,63.61
2022-11-16T21:22:59.751Z,63.90
2022-11-16T21:25:01.707Z,64.82
2022-11-16T21:27:04.166Z,64.49
2022-11-16T21:29:06.745Z,64.38
2022-11-16T21:31:11.392Z,63.65
2022-11-16T21:33:13.575Z,63.38
2022-11-16T21:35:15.405Z,63.51
2022-11-16T21:37:17.172Z,62.69
2022-11-16T21:39:19.351Z,62.56
2022-11-16T21:41:23.770Z,64.03
2022-11-16T21:43:26.136Z,64.01
2022-11-16T21:45:28.401Z,63.28
2022-11-16T21:47:30.232Z,62.05
2022-11-16T21:49:32.146Z,62.07
2022-11-16T21:51:34.283Z,62.08
2022-11-16T21:53:37.139Z,61.84
2022-11-16T21:55:39.227Z,62.33
2022-11-16T21:57:41.481Z,61.50
2022-11-16T21:59:43.291Z,61.42
2022-11-16T22:02:00.599Z,61.41
2022-11-16T22:04:21.365Z,62.48
2022-11-16T22:06:41.661Z,61.29
2022-11-16T22:08:43.890Z,61.91
2022-11-16T22:10:53.025Z,63.37
2022-11-16T22:12:54.814Z,61.69
2022-11-16T22:14:56.916Z,61.10
2022-11-16T22:16:59.073Z,60.83
2022-11-16T22:19:00.901Z,60.86
2022-11-16T22:21:03.136Z,60.92
2022-11-16T22:23:05.298Z,60.80
2022-11-16T22:25:07.935Z,60.28
2022-11-16T22:27:09.709Z,59.39
2022-11-16T22:29:11.868Z,59.67
2022-11-16T22:31:15.054Z,59.30
2022-11-16T22:33:16.839Z,59.73
2022-11-16T22:35:21.767Z,59.38
2022-11-16T22:37:23.602Z,59.04
2022-11-16T22:39:25.623Z,59.62
2022-11-16T22:41:27.780Z,60.04
2022-11-16T22:43:31.189Z,60.53
2022-11-16T22:45:33.074Z,60.63
2022-11-16T22:47:35.902Z,59.95
2022-11-16T22:49:37.728Z,59.40
2022-11-16T22:51:39.597Z,58.75
2022-11-16T22:53:41.802Z,59.25
2022-11-16T22:55:43.642Z,58.29
2022-11-16T22:57:45.477Z,58.81
2022-11-16T22:59:47.778Z,58.92
2022-11-16T23:01:49.563Z,58.89
2022-11-16T23:03:51.565Z,58.01
2022-11-16T23:05:53.760Z,57.52
2022-11-16T23:07:56.918Z,58.24
2022-11-16T23:09:58.774Z,59.00
2022-11-16T23:12:19.991Z,58.72
2022-11-16T23:14:40.291Z,58.12
2022-11-16T23:16:43.982Z,57.75
2022-11-16T23:18:46.099Z,58.20
2022-11-16T23:21:13.958Z,57.54
2022-11-16T23:23:36.124Z,58.56
2022-11-16T23:25:57.060Z,58.16
2022-11-16T23:28:06.143Z,56.83
2022-11-16T23:30:12.399Z,56.79
2022-11-16T23:32:15.279Z,57.82
2022-11-16T23:34:17.085Z,58.02
2022-11-16T23:36:18.890Z,57.71
2022-11-16T23:38:21.040Z,57.26
2022-11-16T23:40:25.569Z,57.62
2022-11-16T23:42:45.910Z,57.43
2022-11-16T23:44:48.243Z,56.96
2022-11-16T23:46:50.017Z,56.91
2022-11-16T23:48:51.955Z,56.17
2022-11-16T23:50:54.062Z,56.10
2022-11-16T23:52:55.829Z,55.75
2022-11-16T23:54:57.667Z,55.49
2022-11-16T23:57:00.352Z,55.74
2022-11-16T23:59:02.161Z,56.45
